Leroy, Indiana
Current Conditions -  °F | °C
As of 3:27 PM on Sunday 23 Nov 2014 (Local Time) from KVPZ Reporting Station
Moderate Rain Moderate Rain  
Wind Chill: 50°   Ceiling: 500
Heat Index: 50°   Visibility: 2mi
Dew Point: 49°   Wind: 12mph
Humidity: 96%   Direction: 140°SE
Pressure: 29.52"   Gusts: NA
Location:  41.36°N, 87.27°W
Report Text: KVPZ 232127Z AUTO 14010KT 2SM RA BR OVC005 10/09 A2952 RMK AO2 CIG 003V009 P0006 T01000094 TSNO
Loading
Personal Weather Stations






























Interactive Weather Map New forecast layout! Learn more

10-Day Weather Forecast

Advertisements
Track Severe Weather on mobile